Time;durP1;ratioP1;P1;durP2;ratioP2;P2;SDS_P1;SDS_P2;PMS_P1;PMS_P2;Temp;Humidity;BMP_temperature;BMP_pressure;BME280_temperature;BME280_humidity;BME280_pressure;Samples;Min_cycle;Max_cycle;Signal;HPM_P1;HPM_P2
2023/04/15 00:01:01;;;;;;;7.50;3.30;;;8.70;99.90;;;;;;7402818;19;19927;-77
2023/04/15 00:03:30;;;;;;;6.90;3.30;;;7.90;99.90;;;;;;7401217;19;19974;-77
2023/04/15 00:06:00;;;;;;;8.30;3.28;;;7.60;99.90;;;;;;7402714;19;19937;-76
2023/04/15 00:08:33;;;;;;;7.68;3.40;;;7.70;99.90;;;;;;7402624;19;20549;-77
2023/04/15 00:11:04;;;;;;;8.60;3.78;;;7.60;99.90;;;;;;7402893;19;20543;-77
2023/04/15 00:13:33;;;;;;;5.82;3.35;;;7.70;99.90;;;;;;7400630;19;19973;-76
2023/04/15 00:16:02;;;;;;;6.30;2.95;;;7.60;99.90;;;;;;7399640;19;20340;-76
2023/04/15 00:18:31;;;;;;;10.55;3.80;;;7.50;99.90;;;;;;7399615;19;19923;-77
2023/04/15 00:21:00;;;;;;;6.85;3.20;;;7.40;99.90;;;;;;7399723;19;19926;-77
2023/04/15 00:23:32;;;;;;;5.47;3.05;;;7.70;99.90;;;;;;7399053;19;19930;-77
2023/04/15 00:26:01;;;;;;;7.25;3.40;;;7.40;99.90;;;;;;7398028;19;19927;-77
2023/04/15 00:28:31;;;;;;;6.13;3.40;;;8.40;99.90;;;;;;7402877;19;19935;-77
2023/04/15 00:31:03;;;;;;;9.65;4.15;;;7.30;99.90;;;;;;7399672;19;19930;-77
2023/04/15 00:33:32;;;;;;;6.15;3.50;;;7.90;99.90;;;;;;7400739;19;19923;-77
2023/04/15 00:36:01;;;;;;;8.98;3.30;;;7.30;99.90;;;;;;7400232;19;20370;-77
2023/04/15 00:38:33;;;;;;;4.97;3.42;;;7.30;99.90;;;;;;7394541;19;19922;-77
2023/04/15 00:41:02;;;;;;;6.93;3.65;;;7.20;99.90;;;;;;7400432;19;19986;-78
2023/04/15 00:43:31;;;;;;;5.10;3.03;;;7.70;99.90;;;;;;7400601;19;19923;-77
2023/04/15 00:46:02;;;;;;;5.47;3.42;;;7.20;99.90;;;;;;7401286;19;19922;-77
2023/04/15 00:48:31;;;;;;;6.30;3.25;;;7.20;99.90;;;;;;7400835;19;20341;-77
2023/04/15 00:51:01;;;;;;;7.15;3.40;;;7.10;99.90;;;;;;7400562;19;19918;-77
2023/04/15 00:53:32;;;;;;;7.97;4.03;;;7.10;99.90;;;;;;7400396;19;19929;-77
2023/04/15 00:56:01;;;;;;;6.55;3.70;;;7.10;99.90;;;;;;7402470;19;19927;-77
2023/04/15 00:58:30;;;;;;;8.15;3.92;;;7.10;99.90;;;;;;7399593;19;19926;-77
2023/04/15 01:01:00;;;;;;;6.30;3.10;;;7.10;99.90;;;;;;7402188;19;19946;-77
2023/04/15 01:03:29;;;;;;;7.93;3.75;;;7.00;99.90;;;;;;7400689;19;19994;-77
2023/04/15 01:05:59;;;;;;;4.05;3.25;;;7.00;99.90;;;;;;7401481;19;19954;-76
2023/04/15 01:08:32;;;;;;;5.25;3.55;;;7.00;99.90;;;;;;7400894;19;19954;-76
2023/04/15 01:11:03;;;;;;;6.30;3.53;;;7.00;99.90;;;;;;7399212;19;19930;-76
2023/04/15 01:13:32;;;;;;;5.30;3.15;;;6.90;99.90;;;;;;7402182;19;19941;-76
2023/04/15 01:16:02;;;;;;;6.15;3.75;;;6.90;99.90;;;;;;7401184;19;20253;-76
2023/04/15 01:18:31;;;;;;;7.70;3.60;;;6.90;99.90;;;;;;7400401;19;20331;-76
2023/04/15 01:21:03;;;;;;;8.20;3.88;;;6.80;99.90;;;;;;7399242;19;20356;-76
2023/04/15 01:23:38;;;;;;;;;;;6.90;99.90;;;;;;7400840;19;20296;-76
2023/04/15 01:26:10;;;;;;;4.82;3.65;;;7.00;99.90;;;;;;7400838;19;19923;-76
2023/04/15 01:28:40;;;;;;;7.53;3.83;;;6.80;99.90;;;;;;7399301;19;19919;-76
2023/04/15 01:31:10;;;;;;;6.25;4.25;;;6.70;99.90;;;;;;7399815;19;20550;-76
2023/04/15 01:33:39;;;;;;;5.80;3.88;;;6.80;99.90;;;;;;7399649;19;19946;-76
2023/04/15 01:36:10;;;;;;;6.47;3.97;;;6.70;99.90;;;;;;7399096;19;19928;-76
2023/04/15 01:38:40;;;;;;;6.30;4.00;;;6.80;99.90;;;;;;7399524;19;20320;-76
2023/04/15 01:41:11;;;;;;;7.25;3.95;;;7.70;99.90;;;;;;7400532;19;19922;-76
2023/04/15 01:43:40;;;;;;;6.47;3.92;;;6.70;99.90;;;;;;7398867;19;20391;-76
2023/04/15 01:46:09;;;;;;;5.93;3.65;;;6.80;99.90;;;;;;7399619;19;19923;-76
2023/04/15 01:48:38;;;;;;;4.40;3.10;;;7.40;99.90;;;;;;7399370;19;19914;-76
2023/04/15 01:51:08;;;;;;;4.95;3.25;;;6.70;99.90;;;;;;7407155;19;20555;-76
2023/04/15 01:53:36;;;;;;;7.28;4.35;;;7.40;99.90;;;;;;7406866;19;19930;-76
2023/04/15 01:56:06;;;;;;;7.22;3.45;;;6.90;99.90;;;;;;7406647;19;19918;-77
2023/04/15 01:58:39;;;;;;;6.18;3.83;;;6.60;99.90;;;;;;7405197;19;19923;-77
2023/04/15 02:01:09;;;;;;;6.47;3.78;;;6.70;99.90;;;;;;7402436;19;20363;-76
2023/04/15 02:03:38;;;;;;;6.80;4.55;;;7.00;99.90;;;;;;7402864;19;19959;-77
2023/04/15 02:06:07;;;;;;;7.35;3.80;;;6.60;99.90;;;;;;7405679;19;19922;-76
2023/04/15 02:08:36;;;;;;;8.63;4.20;;;6.50;99.90;;;;;;7406345;19;20352;-77
2023/04/15 02:11:05;;;;;;;6.15;4.20;;;6.50;99.90;;;;;;7405278;19;19970;-76
2023/04/15 02:13:36;;;;;;;12.10;4.75;;;6.50;99.90;;;;;;7405008;19;20300;-76
2023/04/15 02:16:06;;;;;;;10.80;4.40;;;6.50;99.90;;;;;;7403994;19;19923;-76
2023/04/15 02:18:35;;;;;;;10.18;5.50;;;6.50;99.90;;;;;;7406266;19;19918;-75
2023/04/15 02:21:05;;;;;;;9.07;5.00;;;6.80;99.90;;;;;;7405811;19;19918;-76
2023/04/15 02:23:34;;;;;;;8.43;5.20;;;6.50;99.90;;;;;;7408406;19;20431;-76
2023/04/15 02:26:03;;;;;;;10.50;5.07;;;6.90;99.90;;;;;;7406222;19;20654;-75
2023/04/15 02:28:32;;;;;;;9.95;6.05;;;6.40;99.90;;;;;;7405266;19;19954;-76
2023/04/15 02:31:08;;;;;;;10.23;6.22;;;6.40;99.90;;;;;;7406283;19;20459;-76
2023/04/15 02:33:37;;;;;;;10.15;5.60;;;7.10;99.90;;;;;;7406425;19;19919;-76
2023/04/15 02:36:07;;;;;;;9.18;5.75;;;6.40;99.90;;;;;;7404968;19;19926;-76
2023/04/15 02:38:37;;;;;;;8.13;5.43;;;6.50;99.90;;;;;;7402999;19;19940;-76
2023/04/15 02:41:05;;;;;;;10.45;6.22;;;7.00;99.90;;;;;;7404978;19;19972;-76
2023/04/15 02:43:34;;;;;;;10.98;6.45;;;6.40;99.90;;;;;;7401987;19;19941;-76
2023/04/15 02:46:06;;;;;;;10.13;5.38;;;6.30;99.90;;;;;;7404198;19;19922;-76
2023/04/15 02:48:35;;;;;;;12.02;6.05;;;6.10;99.90;;;;;;7403450;19;19922;-77
2023/04/15 02:51:15;;;;;;;10.02;5.65;;;6.30;99.90;;;;;;7403690;19;20264;-76
2023/04/15 02:53:45;;;;;;;9.85;5.38;;;7.20;99.90;;;;;;7403506;19;19937;-76
2023/04/15 02:56:14;;;;;;;10.43;5.97;;;6.40;99.90;;;;;;7405309;19;20249;-76
2023/04/15 02:58:44;;;;;;;9.93;5.18;;;6.20;99.90;;;;;;7402512;19;19926;-76
2023/04/15 03:01:15;;;;;;;12.68;6.53;;;6.30;99.90;;;;;;7402217;19;19951;-76
2023/04/15 03:03:44;;;;;;;11.32;6.97;;;6.40;99.90;;;;;;7402186;19;19918;-75
2023/04/15 03:06:13;;;;;;;11.95;6.82;;;6.30;99.90;;;;;;7403171;19;19919;-76
2023/04/15 03:08:42;;;;;;;12.68;5.97;;;6.20;99.90;;;;;;7402730;19;19926;-77
2023/04/15 03:11:11;;;;;;;11.88;6.00;;;5.30;99.90;;;;;;7403808;19;20348;-76
2023/04/15 03:13:42;;;;;;;9.88;6.13;;;7.30;99.90;;;;;;7402890;19;19946;-76
2023/04/15 03:16:10;;;;;;;9.10;6.20;;;6.20;99.90;;;;;;7404276;19;20345;-75
2023/04/15 03:18:42;;;;;;;10.63;6.50;;;6.30;99.90;;;;;;7404638;19;20022;-76
2023/04/15 03:21:11;;;;;;;10.38;6.90;;;6.10;99.90;;;;;;7403707;19;19922;-77
2023/04/15 03:23:41;;;;;;;12.05;6.47;;;6.20;99.90;;;;;;7403785;19;19937;-76
2023/04/15 03:26:10;;;;;;;12.18;6.68;;;6.10;99.90;;;;;;7403577;19;20307;-76
2023/04/15 03:28:39;;;;;;;12.75;7.15;;;6.00;99.90;;;;;;7403731;19;19915;-76
2023/04/15 03:31:07;;;;;;;11.38;6.82;;;6.60;99.90;;;;;;7403240;19;20282;-75
2023/04/15 03:33:36;;;;;;;11.25;7.30;;;6.60;99.90;;;;;;7404036;19;19914;-76
2023/04/15 03:36:09;;;;;;;11.20;7.13;;;6.20;99.90;;;;;;7404245;19;19926;-76
2023/04/15 03:38:38;;;;;;;13.45;7.50;;;6.00;99.90;;;;;;7400618;19;19946;-77
2023/04/15 03:41:07;;;;;;;12.90;6.97;;;6.10;99.90;;;;;;7402765;19;20399;-76
2023/04/15 03:43:36;;;;;;;10.95;7.05;;;6.00;99.90;;;;;;7402836;19;19966;-76
2023/04/15 03:46:05;;;;;;;12.05;6.93;;;6.60;99.90;;;;;;7403488;19;19919;-76
2023/04/15 03:48:33;;;;;;;11.90;6.95;;;6.10;99.90;;;;;;7402156;19;19918;-76
2023/04/15 03:51:02;;;;;;;12.23;7.18;;;6.00;99.90;;;;;;7401024;19;19918;-76
2023/04/15 03:53:34;;;;;;;10.10;6.53;;;6.40;99.90;;;;;;7402216;19;19938;-77
2023/04/15 03:56:04;;;;;;;12.52;6.72;;;6.00;99.90;;;;;;7402337;19;19919;-76
2023/04/15 03:58:33;;;;;;;11.60;6.82;;;6.00;99.90;;;;;;7401862;19;19918;-76
2023/04/15 04:01:02;;;;;;;12.10;6.90;;;5.90;99.90;;;;;;7401874;19;20372;-76
2023/04/15 04:03:30;;;;;;;12.50;6.97;;;5.90;99.90;;;;;;7401174;19;19922;-77
2023/04/15 04:05:59;;;;;;;14.30;7.43;;;5.90;99.90;;;;;;7401191;19;19929;-76
2023/04/15 04:08:28;;;;;;;12.63;7.03;;;6.00;99.90;;;;;;7401530;19;19919;-77
2023/04/15 04:11:00;;;;;;;13.48;7.50;;;6.50;99.90;;;;;;7401867;19;19920;-77
2023/04/15 04:13:29;;;;;;;12.00;7.03;;;5.90;99.90;;;;;;7403419;19;19970;-77
2023/04/15 04:15:58;;;;;;;10.50;6.63;;;6.90;99.90;;;;;;7400638;19;19922;-76
2023/04/15 04:18:27;;;;;;;13.63;7.00;;;6.70;99.90;;;;;;7401204;19;19949;-76
2023/04/15 04:20:56;;;;;;;9.30;6.28;;;6.70;99.90;;;;;;7401169;19;19922;-77
2023/04/15 04:23:25;;;;;;;11.50;6.50;;;5.80;99.90;;;;;;7401052;19;19926;-75
2023/04/15 04:25:54;;;;;;;9.82;6.85;;;6.00;99.90;;;;;;7401105;19;19929;-76
2023/04/15 04:28:25;;;;;;;10.77;6.40;;;5.80;99.90;;;;;;7401345;19;19922;-77
2023/04/15 04:30:55;;;;;;;12.07;6.50;;;6.10;99.90;;;;;;7400441;19;19942;-77
2023/04/15 04:33:24;;;;;;;9.10;5.93;;;6.00;99.90;;;;;;7400859;19;20356;-76
2023/04/15 04:35:52;;;;;;;10.82;6.32;;;5.90;99.90;;;;;;7400998;19;19926;-77
2023/04/15 04:38:21;;;;;;;13.32;7.13;;;5.90;99.90;;;;;;7398302;19;20283;-77
2023/04/15 04:40:50;;;;;;;14.43;6.93;;;6.00;99.90;;;;;;7400102;19;19918;-77
2023/04/15 04:43:19;;;;;;;12.10;6.97;;;6.00;99.90;;;;;;7400037;19;20218;-77
2023/04/15 04:45:51;;;;;;;11.23;6.85;;;5.90;99.90;;;;;;7402125;19;19918;-75
2023/04/15 04:48:20;;;;;;;12.38;6.82;;;5.90;99.90;;;;;;7401527;19;19915;-76
2023/04/15 04:50:49;;;;;;;11.73;6.20;;;5.80;99.90;;;;;;7401521;19;19919;-76
2023/04/15 04:53:18;;;;;;;10.00;6.40;;;5.80;99.90;;;;;;7401024;19;19937;-76
2023/04/15 04:55:46;;;;;;;9.73;6.13;;;6.00;99.90;;;;;;7400590;19;20349;-76
2023/04/15 04:58:16;;;;;;;11.38;6.03;;;6.00;99.90;;;;;;7402117;19;19923;-76
2023/04/15 05:00:45;;;;;;;10.63;6.53;;;5.90;99.90;;;;;;7398892;19;19929;-77
2023/04/15 05:03:17;;;;;;;12.55;7.47;;;6.00;99.90;;;;;;7400085;19;19926;-76
2023/04/15 05:05:48;;;;;;;23.02;11.32;;;6.00;99.90;;;;;;7401651;19;19978;-76
2023/04/15 05:08:16;;;;;;;19.80;9.77;;;6.00;99.90;;;;;;7403050;19;19918;-75
2023/04/15 05:10:45;;;;;;;15.50;8.10;;;6.00;99.90;;;;;;7401295;19;19933;-76
2023/04/15 05:13:14;;;;;;;11.02;7.45;;;6.30;99.90;;;;;;7398945;19;19918;-76
2023/04/15 05:15:44;;;;;;;11.43;6.53;;;6.80;99.90;;;;;;7399140;19;19927;-77
2023/04/15 05:18:15;;;;;;;11.55;6.25;;;6.20;99.90;;;;;;7399413;19;20259;-76
2023/04/15 05:20:44;;;;;;;10.75;5.97;;;6.20;99.90;;;;;;7399455;19;20399;-77
2023/04/15 05:23:14;;;;;;;10.73;6.65;;;6.20;99.90;;;;;;7399624;19;19927;-76
2023/04/15 05:25:42;;;;;;;12.68;6.40;;;6.40;99.90;;;;;;7400123;19;19942;-76
2023/04/15 05:28:11;;;;;;;20.52;11.85;;;7.10;99.90;;;;;;7400636;19;19919;-77
2023/04/15 05:30:41;;;;;;;12.68;7.70;;;6.20;99.90;;;;;;7401070;19;20612;-76
2023/04/15 05:33:10;;;;;;;10.10;6.60;;;6.30;99.90;;;;;;7399873;19;19954;-76
2023/04/15 05:35:42;;;;;;;11.43;6.68;;;6.50;99.90;;;;;;7401963;19;19942;-76
2023/04/15 05:38:11;;;;;;;11.38;6.47;;;6.60;99.90;;;;;;7398757;19;19925;-76
2023/04/15 05:40:40;;;;;;;11.68;6.78;;;6.40;99.90;;;;;;7400938;19;19923;-77
2023/04/15 05:43:09;;;;;;;11.32;6.38;;;6.70;99.90;;;;;;7397971;19;19919;-76
2023/04/15 05:45:38;;;;;;;14.23;6.03;;;7.40;99.90;;;;;;7398175;19;19994;-76
2023/04/15 05:48:07;;;;;;;10.18;6.00;;;6.70;99.90;;;;;;7397421;19;19939;-76
2023/04/15 05:50:36;;;;;;;9.82;6.13;;;6.60;99.90;;;;;;7400769;19;19924;-76
2023/04/15 05:53:07;;;;;;;11.77;6.80;;;6.70;99.90;;;;;;7400170;19;20004;-76
2023/04/15 05:55:36;;;;;;;9.20;5.47;;;6.60;99.90;;;;;;7401344;19;20272;-77
2023/04/15 05:58:05;;;;;;;9.63;5.78;;;7.40;99.90;;;;;;7399225;19;19998;-76
2023/04/15 06:00:35;;;;;;;13.02;5.65;;;6.90;99.90;;;;;;7400444;19;20390;-76
2023/04/15 06:03:05;;;;;;;10.38;5.45;;;6.80;99.90;;;;;;7401205;19;20619;-76
2023/04/15 06:05:35;;;;;;;11.10;6.07;;;6.90;99.90;;;;;;7397778;19;20284;-76
2023/04/15 06:08:07;;;;;;;10.00;6.10;;;6.80;99.90;;;;;;7400495;19;19915;-75
2023/04/15 06:10:36;;;;;;;;;;;6.90;99.90;;;;;;7403020;19;19918;-76
2023/04/15 06:13:05;;;;;;;8.10;4.78;;;6.90;99.90;;;;;;7397408;19;19918;-75
2023/04/15 06:15:34;;;;;;;7.65;4.40;;;6.90;99.90;;;;;;7400197;19;19920;-75
2023/04/15 06:18:04;;;;;;;9.73;4.47;;;7.10;99.90;;;;;;7400245;19;19923;-76
2023/04/15 06:20:32;;;;;;;7.25;4.88;;;8.20;99.90;;;;;;7399955;19;19926;-76
2023/04/15 06:23:01;;;;;;;7.68;4.75;;;7.10;99.90;;;;;;7399058;19;20352;-77
2023/04/15 06:25:33;;;;;;;7.60;4.50;;;7.90;99.90;;;;;;7396770;19;19922;-76
2023/04/15 06:28:02;;;;;;;7.30;4.32;;;7.20;99.90;;;;;;7399081;19;19926;-76
2023/04/15 06:30:31;;;;;;;6.70;3.88;;;7.10;99.90;;;;;;7400202;19;19922;-76
2023/04/15 06:33:02;;;;;;;10.95;4.47;;;7.10;99.90;;;;;;7399502;19;19982;-77
2023/04/15 06:35:31;;;;;;;7.63;4.13;;;7.10;99.90;;;;;;7402392;19;19922;-76
2023/04/15 06:37:59;;;;;;;7.70;4.03;;;7.30;99.90;;;;;;7404581;19;20351;-76
2023/04/15 06:40:28;;;;;;;7.70;4.22;;;7.20;99.90;;;;;;7404979;19;19993;-75
2023/04/15 06:43:00;;;;;;;9.07;4.47;;;7.20;99.90;;;;;;7404238;19;20252;-76
2023/04/15 06:45:30;;;;;;;7.25;4.10;;;7.20;99.90;;;;;;7403035;19;20010;-76
2023/04/15 06:47:59;;;;;;;8.40;4.65;;;7.30;99.90;;;;;;7405749;19;19966;-76
2023/04/15 06:50:28;;;;;;;5.93;3.95;;;8.30;99.90;;;;;;7406208;19;19929;-76
2023/04/15 06:52:58;;;;;;;7.35;3.53;;;7.40;99.90;;;;;;7404927;19;19922;-76
2023/04/15 06:55:27;;;;;;;7.50;3.97;;;7.50;99.90;;;;;;7405669;19;19930;-76
2023/04/15 06:57:55;;;;;;;5.45;3.10;;;7.50;99.90;;;;;;7403702;19;19943;-75
2023/04/15 07:00:27;;;;;;;7.25;3.67;;;7.60;99.90;;;;;;7392340;19;20522;-77
2023/04/15 07:02:57;;;;;;;5.93;3.60;;;7.60;99.90;;;;;;7396009;19;19914;-76
2023/04/15 07:05:26;;;;;;;6.95;3.78;;;7.70;99.90;;;;;;7388819;19;19922;-77
2023/04/15 07:07:56;;;;;;;8.52;4.05;;;8.00;99.90;;;;;;7392453;19;19950;-77
2023/04/15 07:10:24;;;;;;;6.40;3.38;;;7.90;99.90;;;;;;7396080;19;19922;-76
2023/04/15 07:12:53;;;;;;;5.55;3.38;;;7.80;99.90;;;;;;7396597;19;19929;-76
2023/04/15 07:15:22;;;;;;;7.00;3.63;;;7.90;99.90;;;;;;7395016;19;19943;-78
2023/04/15 07:17:55;;;;;;;8.63;3.92;;;8.00;99.90;;;;;;7397115;19;19923;-77
2023/04/15 07:20:23;;;;;;;;;;;8.40;99.90;;;;;;7396483;19;19926;-77
2023/04/15 07:22:52;;;;;;;5.72;3.75;;;8.00;99.90;;;;;;7396242;19;19918;-76
2023/04/15 07:25:21;;;;;;;8.88;4.32;;;8.10;99.90;;;;;;7393787;19;20373;-78
2023/04/15 07:27:51;;;;;;;8.25;4.20;;;8.20;99.90;;;;;;7394781;19;19923;-78
2023/04/15 07:30:20;;;;;;;7.10;3.95;;;8.20;99.90;;;;;;7395280;19;19926;-77
2023/04/15 07:32:49;;;;;;;7.63;3.67;;;8.30;99.90;;;;;;7395274;19;19926;-76
2023/04/15 07:35:20;;;;;;;7.43;4.03;;;8.20;99.90;;;;;;7395377;19;19919;-76
2023/04/15 07:37:50;;;;;;;6.25;3.53;;;8.20;99.90;;;;;;7392769;19;20344;-77
2023/04/15 07:40:19;;;;;;;5.68;3.38;;;8.60;99.90;;;;;;7394364;19;19950;-76
2023/04/15 07:42:48;;;;;;;5.03;3.38;;;8.50;99.90;;;;;;7394821;19;19919;-76
2023/04/15 07:45:18;;;;;;;5.18;2.75;;;8.40;99.90;;;;;;7394519;19;20542;-76
2023/04/15 07:47:46;;;;;;;5.00;2.97;;;8.50;99.90;;;;;;7395151;19;19920;-75
2023/04/15 07:50:16;;;;;;;5.20;2.88;;;8.60;99.90;;;;;;7393783;19;20362;-76
2023/04/15 07:52:47;;;;;;;5.05;2.90;;;8.60;99.90;;;;;;7394565;19;19926;-76
2023/04/15 07:55:18;;;;;;;6.07;3.20;;;8.50;99.90;;;;;;7393581;19;19926;-76
2023/04/15 07:57:48;;;;;;;3.88;2.42;;;8.60;99.90;;;;;;7394276;19;20619;-74
2023/04/15 08:00:19;;;;;;;4.15;2.42;;;8.50;99.90;;;;;;7404487;19;20478;-76
2023/04/15 08:02:48;;;;;;;5.00;2.80;;;8.40;99.90;;;;;;7403439;19;19940;-75
2023/04/15 08:05:18;;;;;;;5.53;2.83;;;8.50;99.90;;;;;;7401471;19;20285;-75
2023/04/15 08:07:50;;;;;;;5.65;2.83;;;8.30;99.90;;;;;;7401801;19;19994;-76
2023/04/15 08:10:19;;;;;;;;;;;8.40;99.90;;;;;;7396155;19;20281;-76
2023/04/15 08:12:53;;;;;;;4.63;2.70;;;8.30;99.90;;;;;;7401585;19;20256;-75
2023/04/15 08:15:22;;;;;;;5.57;2.78;;;8.20;99.90;;;;;;7388618;19;19923;-76
2023/04/15 08:17:51;;;;;;;5.13;2.85;;;8.40;99.90;;;;;;7400090;19;19925;-75
2023/04/15 08:20:20;;;;;;;4.90;3.10;;;8.40;99.90;;;;;;7397852;19;20498;-75
2023/04/15 08:22:52;;;;;;;5.03;2.50;;;8.50;99.90;;;;;;7402676;19;19933;-75
2023/04/15 08:25:21;;;;;;;3.45;2.35;;;8.50;99.90;;;;;;7400955;19;20372;-76
2023/04/15 08:27:50;;;;;;;4.18;2.22;;;8.60;99.90;;;;;;7398374;19;20272;-76
2023/04/15 08:30:20;;;;;;;5.05;2.20;;;8.50;99.90;;;;;;7403143;19;19978;-77
2023/04/15 08:32:50;;;;;;;5.97;2.90;;;8.70;99.90;;;;;;7400508;19;19926;-76
2023/04/15 08:35:18;;;;;;;5.63;2.33;;;8.70;99.90;;;;;;7395983;19;19949;-76
2023/04/15 08:37:47;;;;;;;4.25;2.65;;;8.60;99.90;;;;;;7387690;19;19930;-76
2023/04/15 08:40:19;;;;;;;5.95;2.83;;;8.70;99.90;;;;;;7402330;19;19922;-76
2023/04/15 08:42:52;;;;;;;4.70;2.50;;;8.90;99.90;;;;;;7402314;19;20340;-76
2023/04/15 08:45:22;;;;;;;5.40;2.47;;;8.80;99.90;;;;;;7401177;19;19924;-75
2023/04/15 08:47:55;;;;;;;4.53;2.50;;;8.90;99.90;;;;;;7402265;19;19922;-76
2023/04/15 08:50:26;;;;;;;5.07;2.60;;;8.80;99.90;;;;;;7399186;19;19922;-77
2023/04/15 08:52:56;;;;;;;3.45;2.20;;;9.00;99.90;;;;;;7401864;19;19986;-76
2023/04/15 08:55:32;;;;;;;3.78;2.20;;;8.80;99.90;;;;;;7400925;19;19918;-77
2023/04/15 08:58:01;;;;;;;6.82;3.10;;;8.70;99.90;;;;;;7399141;19;19926;-76
2023/04/15 09:00:31;;;;;;;4.13;2.42;;;8.70;99.90;;;;;;7400252;19;19922;-77
2023/04/15 09:03:01;;;;;;;4.10;2.25;;;8.60;99.90;;;;;;7390488;19;19933;-77
2023/04/15 09:05:33;;;;;;;3.45;2.10;;;8.70;99.90;;;;;;7390176;19;19933;-77
2023/04/15 09:08:03;;;;;;;4.45;2.55;;;8.70;99.90;;;;;;7391483;19;20358;-77
2023/04/15 09:10:35;;;;;;;5.85;2.33;;;8.60;99.90;;;;;;7391793;19;19937;-77
2023/04/15 09:13:04;;;;;;;5.57;2.25;;;8.70;99.90;;;;;;7391225;19;19922;-77
2023/04/15 09:15:35;;;;;;;4.22;2.20;;;8.40;99.90;;;;;;7389280;19;19926;-77
2023/04/15 09:18:03;;;;;;;7.25;2.40;;;8.50;99.90;;;;;;7389070;19;20035;-77
2023/04/15 09:20:40;;;;;;;5.93;1.90;;;9.00;99.90;;;;;;7393695;19;19926;-77
2023/04/15 09:23:16;;;;;;;5.97;2.13;;;8.80;99.90;;;;;;7383831;19;19923;-77
2023/04/15 09:25:48;;;;;;;3.50;2.03;;;8.70;99.90;;;;;;7390963;19;19922;-76
2023/04/15 09:28:17;;;;;;;2.53;2.05;;;8.30;99.90;;;;;;7392957;19;20661;-77
2023/04/15 09:30:47;;;;;;;5.07;1.95;;;8.80;99.90;;;;;;7389746;19;20348;-76
2023/04/15 09:33:16;;;;;;;3.60;1.38;;;8.90;99.90;;;;;;7392470;19;21831;-77
2023/04/15 09:35:59;;;;;;;3.50;2.10;;;9.00;99.90;;;;;;7391394;19;19974;-76
2023/04/15 09:38:28;;;;;;;5.20;1.80;;;8.90;99.90;;;;;;7388338;19;19926;-75
2023/04/15 09:41:00;;;;;;;3.63;1.50;;;8.90;99.90;;;;;;7390744;19;20504;-76
2023/04/15 09:43:41;;;;;;;;;;;9.10;99.90;;;;;;7391641;19;19980;-76
2023/04/15 09:46:10;;;;;;;4.38;1.98;;;8.90;99.90;;;;;;7389235;19;19944;-76
2023/04/15 09:48:39;;;;;;;4.93;2.38;;;9.40;99.90;;;;;;7393926;19;19915;-76
2023/04/15 09:51:08;;;;;;;3.15;1.40;;;9.10;99.90;;;;;;7393291;19;19926;-76
2023/04/15 09:53:38;;;;;;;5.03;1.70;;;9.10;99.90;;;;;;7387778;19;19962;-76
2023/04/15 09:56:10;;;;;;;3.78;1.70;;;9.00;99.90;;;;;;7389280;19;20356;-76
2023/04/15 09:58:41;;;;;;;3.70;1.70;;;9.20;99.90;;;;;;7389505;19;19926;-77
2023/04/15 10:01:10;;;;;;;4.10;2.40;;;9.10;99.90;;;;;;7388861;19;19938;-76
2023/04/15 10:03:41;;;;;;;4.80;1.75;;;9.30;99.90;;;;;;7391920;19;19922;-77
2023/04/15 10:06:12;;;;;;;4.00;1.73;;;9.20;99.90;;;;;;7389338;19;19919;-77
2023/04/15 10:08:41;;;;;;;2.58;1.83;;;9.20;99.90;;;;;;7396736;19;20281;-76
2023/04/15 10:11:14;;;;;;;4.07;2.17;;;8.50;99.90;;;;;;7401956;19;19926;-74
2023/04/15 10:13:43;;;;;;;6.55;1.80;;;9.30;99.90;;;;;;7398260;19;19929;-75
2023/04/15 10:16:15;;;;;;;2.38;1.73;;;9.20;99.90;;;;;;7405110;19;19926;-77
2023/04/15 10:18:46;;;;;;;7.15;1.77;;;9.20;99.90;;;;;;7406481;19;19923;-76
2023/04/15 10:21:17;;;;;;;2.13;1.60;;;9.30;99.90;;;;;;7403231;19;19918;-78
2023/04/15 10:23:47;;;;;;;2.85;1.42;;;9.20;99.90;;;;;;7402606;19;19930;-76
2023/04/15 10:26:19;;;;;;;4.80;1.92;;;9.10;99.90;;;;;;7400855;19;20351;-77
2023/04/15 10:28:48;;;;;;;4.25;1.63;;;9.10;99.90;;;;;;7405455;19;19923;-75
2023/04/15 10:31:18;;;;;;;3.42;1.60;;;9.20;99.90;;;;;;7404234;19;19986;-75
2023/04/15 10:33:49;;;;;;;4.22;1.50;;;9.30;99.90;;;;;;7405972;19;19978;-75
2023/04/15 10:36:19;;;;;;;1.77;1.35;;;9.40;99.90;;;;;;7395325;19;19946;-76
2023/04/15 10:38:48;;;;;;;6.10;1.50;;;9.20;99.90;;;;;;7371226;19;19911;-76
2023/04/15 10:41:22;;;;;;;3.80;1.38;;;9.30;99.90;;;;;;7403384;19;19939;-76
2023/04/15 10:43:52;;;;;;;2.83;1.30;;;9.40;99.90;;;;;;7401197;19;19927;-75
2023/04/15 10:46:24;;;;;;;4.95;3.58;;;9.60;99.90;;;;;;7398520;19;20331;-76
2023/04/15 10:48:54;;;;;;;6.07;2.67;;;9.50;99.90;;;;;;7398789;19;20257;-75
2023/04/15 10:51:31;;;;;;;4.97;2.22;;;9.30;99.90;;;;;;7402081;19;19918;-76
2023/04/15 10:54:02;;;;;;;3.78;1.63;;;9.40;99.90;;;;;;7403473;19;20444;-76
2023/04/15 10:56:34;;;;;;;3.63;1.85;;;9.40;99.90;;;;;;7400690;19;20372;-76
2023/04/15 10:59:03;;;;;;;4.00;2.13;;;9.30;99.90;;;;;;7402653;19;19921;-75
2023/04/15 11:01:55;;;;;;;3.40;1.40;;;9.20;99.90;;;;;;7403434;19;19926;-75
2023/04/15 11:04:54;;;;;;;4.40;1.42;;;9.30;99.90;;;;;;7403179;19;19929;-76
2023/04/15 11:07:38;;;;;;;3.42;1.48;;;9.20;99.90;;;;;;7401554;19;19921;-75
2023/04/15 11:10:55;;;;;;;3.83;1.35;;;9.10;99.90;;;;;;7398643;19;19930;-75
2023/04/15 11:13:31;;;;;;;4.70;1.50;;;9.20;99.90;;;;;;7401379;19;19947;-76
2023/04/15 11:16:02;;;;;;;2.15;1.30;;;9.10;99.90;;;;;;7396016;19;19918;-76
2023/04/15 11:18:36;;;;;;;6.07;2.78;;;9.00;99.90;;;;;;7403647;19;19966;-75
2023/04/15 11:21:08;;;;;;;6.20;2.10;;;9.20;99.90;;;;;;7394952;19;19950;-75
2023/04/15 11:23:40;;;;;;;3.83;1.73;;;9.10;99.90;;;;;;7400816;19;20441;-76
2023/04/15 11:26:11;;;;;;;3.50;1.45;;;9.10;99.90;;;;;;7394586;19;19993;-75
2023/04/15 11:28:44;;;;;;;3.30;1.50;;;9.10;99.90;;;;;;7401225;19;19929;-75
2023/04/15 11:31:16;;;;;;;4.70;1.98;;;9.10;99.90;;;;;;7401985;19;19918;-75
2023/04/15 11:33:55;;;;;;;2.15;1.20;;;9.10;99.90;;;;;;7402092;19;19918;-75
2023/04/15 11:36:27;;;;;;;4.40;1.17;;;9.10;99.90;;;;;;7401055;19;20384;-75
2023/04/15 11:38:56;;;;;;;3.83;1.65;;;9.10;99.90;;;;;;7398097;19;19930;-74
2023/04/15 11:41:26;;;;;;;3.92;1.55;;;9.00;99.90;;;;;;7401200;19;19922;-74
2023/04/15 11:43:57;;;;;;;8.13;1.35;;;9.10;99.90;;;;;;7400495;19;21118;-76
2023/04/15 11:46:32;;;;;;;4.80;1.25;;;9.00;99.90;;;;;;7396998;19;19926;-75
2023/04/15 11:49:01;;;;;;;5.13;1.60;;;9.60;99.90;;;;;;7394927;19;19922;-75
2023/04/15 11:51:34;;;;;;;2.60;0.98;;;9.00;99.90;;;;;;7396710;19;19946;-75
2023/04/15 11:54:03;;;;;;;6.50;1.90;;;9.00;99.90;;;;;;7399730;19;19923;-75
2023/04/15 11:56:32;;;;;;;5.35;1.02;;;8.90;99.90;;;;;;7400609;19;19914;-75
2023/04/15 11:59:04;;;;;;;5.88;1.17;;;8.90;99.90;;;;;;7394432;19;19996;-76
2023/04/15 12:01:33;;;;;;;5.60;1.50;;;8.90;99.90;;;;;;7396070;19;19922;-75
2023/04/15 12:04:02;;;;;;;5.13;1.13;;;8.90;99.90;;;;;;7400328;19;19940;-75
2023/04/15 12:06:36;;;;;;;2.08;1.00;;;8.90;99.90;;;;;;7397332;19;19925;-75
2023/04/15 12:09:11;;;;;;;5.80;1.65;;;8.90;99.90;;;;;;7400266;19;19982;-75
2023/04/15 12:11:43;;;;;;;2.78;1.15;;;8.90;99.90;;;;;;7399744;19;19948;-76
2023/04/15 12:14:17;;;;;;;;;;;8.80;99.90;;;;;;7400194;19;20336;-76
2023/04/15 12:16:48;;;;;;;5.03;1.50;;;8.90;99.90;;;;;;7401582;19;19952;-76
2023/04/15 12:19:18;;;;;;;2.30;1.23;;;8.90;99.90;;;;;;7403132;19;19929;-74
2023/04/15 12:21:49;;;;;;;3.50;1.20;;;8.80;99.90;;;;;;7400955;19;19926;-78
2023/04/15 12:24:21;;;;;;;3.90;1.50;;;8.90;99.90;;;;;;7401715;19;19926;-76
2023/04/15 12:26:51;;;;;;;6.45;1.55;;;8.90;99.90;;;;;;7401053;19;19929;-75
2023/04/15 12:29:27;;;;;;;6.25;1.42;;;8.80;99.90;;;;;;7401928;19;19923;-76
2023/04/15 12:31:58;;;;;;;3.22;1.25;;;8.90;99.90;;;;;;7399602;19;19951;-76
2023/04/15 12:34:31;;;;;;;4.40;1.23;;;8.90;99.90;;;;;;7402479;19;19930;-75
2023/04/15 12:37:02;;;;;;;4.85;1.40;;;8.90;99.90;;;;;;7400440;19;19935;-74
2023/04/15 12:39:32;;;;;;;5.20;1.40;;;8.90;99.90;;;;;;7402247;19;19978;-74
2023/04/15 12:42:01;;;;;;;1.73;1.08;;;8.90;99.90;;;;;;7399689;19;19951;-72
2023/04/15 12:44:33;;;;;;;6.10;1.88;;;8.90;99.90;;;;;;7397729;19;20422;-70
2023/04/15 12:47:02;;;;;;;2.92;1.30;;;8.90;99.90;;;;;;7398178;19;19989;-71
2023/04/15 12:49:32;;;;;;;2.35;0.82;;;8.80;99.90;;;;;;7401763;19;19919;-72
2023/04/15 12:52:03;;;;;;;3.10;0.80;;;8.80;99.90;;;;;;7401421;19;19933;-71
2023/04/15 12:54:34;;;;;;;2.15;1.15;;;8.80;99.90;;;;;;7399686;19;19922;-72
2023/04/15 12:57:04;;;;;;;3.90;1.63;;;8.70;99.90;;;;;;7400726;19;19922;-71
2023/04/15 12:59:36;;;;;;;3.88;1.27;;;8.60;99.90;;;;;;7400301;19;19927;-71
2023/04/15 13:02:06;;;;;;;2.17;0.98;;;8.80;99.90;;;;;;7402575;19;20194;-72
2023/04/15 13:04:35;;;;;;;5.30;1.42;;;8.80;99.90;;;;;;7400263;19;19911;-71
2023/04/15 13:07:04;;;;;;;10.80;3.83;;;8.10;99.90;;;;;;7399052;19;19918;-72
2023/04/15 13:09:34;;;;;;;8.30;1.40;;;8.60;99.90;;;;;;7400146;19;20344;-72
2023/04/15 13:12:04;;;;;;;6.03;1.25;;;8.70;99.90;;;;;;7401641;19;20330;-72